sensor_id;sensor_type;location;lat;lon;timestamp;temperature;humidity
49503;DHT22;35409;48.776;9.204;2023-04-29T00:01:28;12.70;99.90
49503;DHT22;35409;48.776;9.204;2023-04-29T00:03:54;12.70;99.90
49503;DHT22;35409;48.776;9.204;2023-04-29T00:06:19;12.80;99.90
49503;DHT22;35409;48.776;9.204;2023-04-29T00:08:45;12.70;99.90
49503;DHT22;35409;48.776;9.204;2023-04-29T00:11:11;12.80;99.90
49503;DHT22;35409;48.776;9.204;2023-04-29T00:13:36;12.70;99.90
49503;DHT22;35409;48.776;9.204;2023-04-29T00:16:04;12.80;99.90
49503;DHT22;35409;48.776;9.204;2023-04-29T00:18:30;12.70;99.90
49503;DHT22;35409;48.776;9.204;2023-04-29T00:20:56;12.70;99.90
49503;DHT22;35409;48.776;9.204;2023-04-29T00:23:22;12.70;99.90
49503;DHT22;35409;48.776;9.204;2023-04-29T00:25:47;12.60;99.90
49503;DHT22;35409;48.776;9.204;2023-04-29T00:28:12;12.60;99.90
49503;DHT22;35409;48.776;9.204;2023-04-29T00:30:38;12.50;99.90
49503;DHT22;35409;48.776;9.204;2023-04-29T00:33:03;12.50;99.90
49503;DHT22;35409;48.776;9.204;2023-04-29T00:35:29;12.40;99.90
49503;DHT22;35409;48.776;9.204;2023-04-29T00:37:54;12.40;99.90
49503;DHT22;35409;48.776;9.204;2023-04-29T00:40:20;12.40;99.90
49503;DHT22;35409;48.776;9.204;2023-04-29T00:42:45;12.40;99.90
49503;DHT22;35409;48.776;9.204;2023-04-29T00:45:11;12.40;99.90
49503;DHT22;35409;48.776;9.204;2023-04-29T00:47:37;12.40;99.90
49503;DHT22;35409;48.776;9.204;2023-04-29T00:50:03;12.30;99.90
49503;DHT22;35409;48.776;9.204;2023-04-29T00:52:29;12.30;99.90
49503;DHT22;35409;48.776;9.204;2023-04-29T00:54:55;12.30;99.90
49503;DHT22;35409;48.776;9.204;2023-04-29T00:57:21;12.30;99.90
49503;DHT22;35409;48.776;9.204;2023-04-29T00:59:47;12.30;99.90
49503;DHT22;35409;48.776;9.204;2023-04-29T01:02:12;12.30;99.90
49503;DHT22;35409;48.776;9.204;2023-04-29T01:04:38;12.30;99.90
49503;DHT22;35409;48.776;9.204;2023-04-29T01:17:25;12.30;99.90
49503;DHT22;35409;48.776;9.204;2023-04-29T01:19:54;12.20;99.90
49503;DHT22;35409;48.776;9.204;2023-04-29T01:22:21;12.20;99.90
49503;DHT22;35409;48.776;9.204;2023-04-29T01:24:47;12.20;99.90
49503;DHT22;35409;48.776;9.204;2023-04-29T01:29:47;12.10;99.90
49503;DHT22;35409;48.776;9.204;2023-04-29T01:32:22;12.10;99.90
49503;DHT22;35409;48.776;9.204;2023-04-29T01:37:55;12.10;99.90
49503;DHT22;35409;48.776;9.204;2023-04-29T01:40:25;12.00;99.90
49503;DHT22;35409;48.776;9.204;2023-04-29T01:42:54;12.00;99.90
49503;DHT22;35409;48.776;9.204;2023-04-29T01:45:23;12.00;99.90
49503;DHT22;35409;48.776;9.204;2023-04-29T01:47:50;12.00;99.90
49503;DHT22;35409;48.776;9.204;2023-04-29T01:50:17;12.00;99.90
49503;DHT22;35409;48.776;9.204;2023-04-29T01:52:42;12.00;99.90
49503;DHT22;35409;48.776;9.204;2023-04-29T01:55:08;12.00;99.90
49503;DHT22;35409;48.776;9.204;2023-04-29T01:57:35;12.00;99.90
49503;DHT22;35409;48.776;9.204;2023-04-29T02:00:00;12.00;99.90
49503;DHT22;35409;48.776;9.204;2023-04-29T02:02:26;11.90;99.90
49503;DHT22;35409;48.776;9.204;2023-04-29T02:04:51;11.90;99.90
49503;DHT22;35409;48.776;9.204;2023-04-29T02:07:17;11.90;99.90
49503;DHT22;35409;48.776;9.204;2023-04-29T02:09:42;11.90;99.90
49503;DHT22;35409;48.776;9.204;2023-04-29T02:12:08;11.80;99.90
49503;DHT22;35409;48.776;9.204;2023-04-29T02:14:33;11.80;99.90
49503;DHT22;35409;48.776;9.204;2023-04-29T02:17:00;11.80;99.90
49503;DHT22;35409;48.776;9.204;2023-04-29T02:19:25;11.80;99.90
49503;DHT22;35409;48.776;9.204;2023-04-29T02:21:51;11.70;99.90
49503;DHT22;35409;48.776;9.204;2023-04-29T02:24:17;11.70;99.90
49503;DHT22;35409;48.776;9.204;2023-04-29T02:26:42;11.70;99.90
49503;DHT22;35409;48.776;9.204;2023-04-29T02:29:08;11.70;99.90
49503;DHT22;35409;48.776;9.204;2023-04-29T02:31:33;11.70;99.90
49503;DHT22;35409;48.776;9.204;2023-04-29T02:33:58;11.70;99.90
49503;DHT22;35409;48.776;9.204;2023-04-29T02:36:25;11.60;99.90
49503;DHT22;35409;48.776;9.204;2023-04-29T02:38:51;11.60;99.90
49503;DHT22;35409;48.776;9.204;2023-04-29T02:41:19;11.50;99.90
49503;DHT22;35409;48.776;9.204;2023-04-29T02:43:44;11.50;99.90
49503;DHT22;35409;48.776;9.204;2023-04-29T02:46:10;11.50;99.90
49503;DHT22;35409;48.776;9.204;2023-04-29T02:48:36;11.40;99.90
49503;DHT22;35409;48.776;9.204;2023-04-29T02:51:02;11.40;99.90
49503;DHT22;35409;48.776;9.204;2023-04-29T02:53:27;11.40;99.90
49503;DHT22;35409;48.776;9.204;2023-04-29T02:55:52;11.40;99.90
49503;DHT22;35409;48.776;9.204;2023-04-29T02:58:18;11.30;99.90
49503;DHT22;35409;48.776;9.204;2023-04-29T03:22:37;11.10;99.90
49503;DHT22;35409;48.776;9.204;2023-04-29T03:25:03;11.10;99.90
49503;DHT22;35409;48.776;9.204;2023-04-29T03:27:29;11.00;99.90
49503;DHT22;35409;48.776;9.204;2023-04-29T03:29:55;10.90;99.90
49503;DHT22;35409;48.776;9.204;2023-04-29T03:32:20;10.90;99.90
49503;DHT22;35409;48.776;9.204;2023-04-29T03:34:46;10.80;99.90
49503;DHT22;35409;48.776;9.204;2023-04-29T03:37:12;10.80;99.90
49503;DHT22;35409;48.776;9.204;2023-04-29T03:39:37;10.80;99.90
49503;DHT22;35409;48.776;9.204;2023-04-29T03:42:03;10.70;99.90
49503;DHT22;35409;48.776;9.204;2023-04-29T03:44:29;10.70;99.90
49503;DHT22;35409;48.776;9.204;2023-04-29T03:46:54;10.70;99.90
49503;DHT22;35409;48.776;9.204;2023-04-29T03:49:20;10.70;99.90
49503;DHT22;35409;48.776;9.204;2023-04-29T03:51:45;10.70;99.90
49503;DHT22;35409;48.776;9.204;2023-04-29T03:54:11;10.60;99.90
49503;DHT22;35409;48.776;9.204;2023-04-29T03:56:37;10.60;99.90
49503;DHT22;35409;48.776;9.204;2023-04-29T03:59:02;10.60;99.90
49503;DHT22;35409;48.776;9.204;2023-04-29T04:01:28;10.50;99.90
49503;DHT22;35409;48.776;9.204;2023-04-29T04:03:53;10.50;99.90
49503;DHT22;35409;48.776;9.204;2023-04-29T04:06:19;10.40;99.90
49503;DHT22;35409;48.776;9.204;2023-04-29T04:08:45;10.40;99.90
49503;DHT22;35409;48.776;9.204;2023-04-29T04:11:10;10.40;99.90
49503;DHT22;35409;48.776;9.204;2023-04-29T04:13:42;10.40;99.90
49503;DHT22;35409;48.776;9.204;2023-04-29T04:16:08;10.30;99.90
49503;DHT22;35409;48.776;9.204;2023-04-29T04:18:35;10.30;99.90
49503;DHT22;35409;48.776;9.204;2023-04-29T04:21:04;10.30;99.90
49503;DHT22;35409;48.776;9.204;2023-04-29T04:23:29;10.30;99.90
49503;DHT22;35409;48.776;9.204;2023-04-29T04:25:55;10.30;99.90
49503;DHT22;35409;48.776;9.204;2023-04-29T04:28:22;10.30;99.90
49503;DHT22;35409;48.776;9.204;2023-04-29T04:30:47;10.30;99.90
49503;DHT22;35409;48.776;9.204;2023-04-29T04:33:13;10.30;99.90
49503;DHT22;35409;48.776;9.204;2023-04-29T04:35:38;10.30;99.90
49503;DHT22;35409;48.776;9.204;2023-04-29T04:38:04;10.30;99.90
49503;DHT22;35409;48.776;9.204;2023-04-29T04:40:29;10.30;99.90
49503;DHT22;35409;48.776;9.204;2023-04-29T04:42:55;10.30;99.90
49503;DHT22;35409;48.776;9.204;2023-04-29T04:45:20;10.40;99.90
49503;DHT22;35409;48.776;9.204;2023-04-29T04:47:46;10.30;99.90
49503;DHT22;35409;48.776;9.204;2023-04-29T04:50:11;10.40;99.90
49503;DHT22;35409;48.776;9.204;2023-04-29T04:52:37;10.30;99.90
49503;DHT22;35409;48.776;9.204;2023-04-29T04:55:02;10.30;99.90
49503;DHT22;35409;48.776;9.204;2023-04-29T04:57:28;10.30;99.90
49503;DHT22;35409;48.776;9.204;2023-04-29T04:59:54;10.20;99.90
49503;DHT22;35409;48.776;9.204;2023-04-29T05:02:19;10.20;99.90
49503;DHT22;35409;48.776;9.204;2023-04-29T05:04:44;10.20;99.90
49503;DHT22;35409;48.776;9.204;2023-04-29T05:07:10;10.20;99.90
49503;DHT22;35409;48.776;9.204;2023-04-29T05:09:36;10.20;99.90
49503;DHT22;35409;48.776;9.204;2023-04-29T05:12:01;10.30;99.90
49503;DHT22;35409;48.776;9.204;2023-04-29T05:14:27;10.30;99.90
49503;DHT22;35409;48.776;9.204;2023-04-29T05:16:56;10.30;99.90
49503;DHT22;35409;48.776;9.204;2023-04-29T05:19:22;10.40;99.90
49503;DHT22;35409;48.776;9.204;2023-04-29T05:21:47;10.60;99.90
49503;DHT22;35409;48.776;9.204;2023-04-29T05:24:13;10.80;99.90
49503;DHT22;35409;48.776;9.204;2023-04-29T05:26:39;10.90;99.90
49503;DHT22;35409;48.776;9.204;2023-04-29T05:29:05;11.00;99.90
49503;DHT22;35409;48.776;9.204;2023-04-29T05:31:31;11.10;99.90
49503;DHT22;35409;48.776;9.204;2023-04-29T05:33:57;11.30;99.90
49503;DHT22;35409;48.776;9.204;2023-04-29T05:36:23;11.40;99.90
49503;DHT22;35409;48.776;9.204;2023-04-29T05:38:48;11.60;99.90
49503;DHT22;35409;48.776;9.204;2023-04-29T05:41:14;11.70;99.90
49503;DHT22;35409;48.776;9.204;2023-04-29T05:43:40;11.90;99.90
49503;DHT22;35409;48.776;9.204;2023-04-29T05:46:05;12.10;99.90
49503;DHT22;35409;48.776;9.204;2023-04-29T05:48:31;12.30;99.90
49503;DHT22;35409;48.776;9.204;2023-04-29T05:50:57;12.50;99.90
49503;DHT22;35409;48.776;9.204;2023-04-29T05:53:22;12.60;99.90
49503;DHT22;35409;48.776;9.204;2023-04-29T05:55:48;12.80;99.90
49503;DHT22;35409;48.776;9.204;2023-04-29T05:58:15;13.00;99.90
49503;DHT22;35409;48.776;9.204;2023-04-29T06:00:41;13.10;99.90
49503;DHT22;35409;48.776;9.204;2023-04-29T06:03:08;13.20;99.90
49503;DHT22;35409;48.776;9.204;2023-04-29T06:05:35;13.20;99.90
49503;DHT22;35409;48.776;9.204;2023-04-29T06:08:01;13.20;99.90
49503;DHT22;35409;48.776;9.204;2023-04-29T06:10:27;13.30;99.90
49503;DHT22;35409;48.776;9.204;2023-04-29T06:12:52;13.30;99.90
49503;DHT22;35409;48.776;9.204;2023-04-29T06:15:18;13.30;99.90
49503;DHT22;35409;48.776;9.204;2023-04-29T06:17:43;13.40;99.90
49503;DHT22;35409;48.776;9.204;2023-04-29T06:20:09;13.40;99.90
49503;DHT22;35409;48.776;9.204;2023-04-29T06:22:35;13.50;99.90
49503;DHT22;35409;48.776;9.204;2023-04-29T06:25:00;13.50;99.90
49503;DHT22;35409;48.776;9.204;2023-04-29T06:27:26;13.50;99.90
49503;DHT22;35409;48.776;9.204;2023-04-29T06:29:52;13.50;99.90
49503;DHT22;35409;48.776;9.204;2023-04-29T06:32:18;13.50;99.90
49503;DHT22;35409;48.776;9.204;2023-04-29T06:34:43;13.60;99.90
49503;DHT22;35409;48.776;9.204;2023-04-29T06:37:09;13.80;99.90
49503;DHT22;35409;48.776;9.204;2023-04-29T06:39:35;13.90;99.90
49503;DHT22;35409;48.776;9.204;2023-04-29T06:42:00;14.00;99.90
49503;DHT22;35409;48.776;9.204;2023-04-29T06:44:26;14.20;99.90
49503;DHT22;35409;48.776;9.204;2023-04-29T06:46:51;14.30;99.90
49503;DHT22;35409;48.776;9.204;2023-04-29T06:49:17;14.40;99.90
49503;DHT22;35409;48.776;9.204;2023-04-29T06:51:43;14.50;99.90
49503;DHT22;35409;48.776;9.204;2023-04-29T06:54:08;14.50;99.90
49503;DHT22;35409;48.776;9.204;2023-04-29T06:56:34;14.50;99.90
49503;DHT22;35409;48.776;9.204;2023-04-29T06:58:59;14.40;99.90
49503;DHT22;35409;48.776;9.204;2023-04-29T07:01:25;14.50;99.90
49503;DHT22;35409;48.776;9.204;2023-04-29T07:03:50;14.50;99.90
49503;DHT22;35409;48.776;9.204;2023-04-29T07:06:16;14.50;99.90
49503;DHT22;35409;48.776;9.204;2023-04-29T07:08:42;14.40;99.90
49503;DHT22;35409;48.776;9.204;2023-04-29T07:11:07;14.30;99.90
49503;DHT22;35409;48.776;9.204;2023-04-29T07:13:33;14.20;99.90
49503;DHT22;35409;48.776;9.204;2023-04-29T07:15:58;14.20;99.90
49503;DHT22;35409;48.776;9.204;2023-04-29T07:18:27;14.30;99.90
49503;DHT22;35409;48.776;9.204;2023-04-29T07:20:53;14.40;99.90
49503;DHT22;35409;48.776;9.204;2023-04-29T07:23:21;14.50;99.90
49503;DHT22;35409;48.776;9.204;2023-04-29T07:25:47;14.50;99.90
49503;DHT22;35409;48.776;9.204;2023-04-29T07:28:12;14.40;99.90
49503;DHT22;35409;48.776;9.204;2023-04-29T07:30:38;14.30;99.90
49503;DHT22;35409;48.776;9.204;2023-04-29T07:33:03;14.30;99.90
49503;DHT22;35409;48.776;9.204;2023-04-29T07:35:29;14.20;99.90
49503;DHT22;35409;48.776;9.204;2023-04-29T07:37:54;14.30;99.90
49503;DHT22;35409;48.776;9.204;2023-04-29T07:40:20;14.20;99.90
49503;DHT22;35409;48.776;9.204;2023-04-29T07:42:45;14.30;99.90
49503;DHT22;35409;48.776;9.204;2023-04-29T07:45:11;14.40;99.90
49503;DHT22;35409;48.776;9.204;2023-04-29T07:47:38;14.50;99.90
49503;DHT22;35409;48.776;9.204;2023-04-29T07:50:04;14.70;99.90
49503;DHT22;35409;48.776;9.204;2023-04-29T07:52:29;14.70;99.90
49503;DHT22;35409;48.776;9.204;2023-04-29T07:54:55;14.70;99.90
49503;DHT22;35409;48.776;9.204;2023-04-29T07:57:21;14.80;99.90
49503;DHT22;35409;48.776;9.204;2023-04-29T07:59:50;15.00;99.90
49503;DHT22;35409;48.776;9.204;2023-04-29T08:02:16;15.00;99.90
49503;DHT22;35409;48.776;9.204;2023-04-29T08:04:42;15.00;99.90
49503;DHT22;35409;48.776;9.204;2023-04-29T08:07:07;15.00;99.90
49503;DHT22;35409;48.776;9.204;2023-04-29T08:09:33;15.00;99.90
49503;DHT22;35409;48.776;9.204;2023-04-29T08:11:59;15.10;99.90
49503;DHT22;35409;48.776;9.204;2023-04-29T08:14:25;15.10;99.90
49503;DHT22;35409;48.776;9.204;2023-04-29T08:16:51;15.10;99.90
49503;DHT22;35409;48.776;9.204;2023-04-29T08:19:16;15.10;99.90
49503;DHT22;35409;48.776;9.204;2023-04-29T08:21:42;15.10;99.90
49503;DHT22;35409;48.776;9.204;2023-04-29T08:24:07;15.20;99.90
49503;DHT22;35409;48.776;9.204;2023-04-29T08:26:33;15.30;99.90
49503;DHT22;35409;48.776;9.204;2023-04-29T08:28:58;15.20;99.90
49503;DHT22;35409;48.776;9.204;2023-04-29T08:31:24;15.30;99.90
49503;DHT22;35409;48.776;9.204;2023-04-29T08:33:50;15.40;99.90
49503;DHT22;35409;48.776;9.204;2023-04-29T08:36:16;15.50;99.90
49503;DHT22;35409;48.776;9.204;2023-04-29T08:38:41;15.70;99.90
49503;DHT22;35409;48.776;9.204;2023-04-29T08:41:07;15.50;99.90
49503;DHT22;35409;48.776;9.204;2023-04-29T08:43:36;15.50;99.90
49503;DHT22;35409;48.776;9.204;2023-04-29T08:46:02;15.40;99.90
49503;DHT22;35409;48.776;9.204;2023-04-29T08:48:29;15.40;99.90
49503;DHT22;35409;48.776;9.204;2023-04-29T08:50:54;15.20;99.90
49503;DHT22;35409;48.776;9.204;2023-04-29T08:53:20;15.10;99.90
49503;DHT22;35409;48.776;9.204;2023-04-29T08:55:46;14.90;99.90
49503;DHT22;35409;48.776;9.204;2023-04-29T08:58:13;14.80;99.90
49503;DHT22;35409;48.776;9.204;2023-04-29T09:00:39;14.70;99.90
49503;DHT22;35409;48.776;9.204;2023-04-29T09:03:20;14.70;99.90
49503;DHT22;35409;48.776;9.204;2023-04-29T09:05:48;14.70;99.90
49503;DHT22;35409;48.776;9.204;2023-04-29T09:08:17;14.80;99.90
49503;DHT22;35409;48.776;9.204;2023-04-29T09:10:43;14.90;99.90
49503;DHT22;35409;48.776;9.204;2023-04-29T09:13:08;15.00;99.90
49503;DHT22;35409;48.776;9.204;2023-04-29T09:15:37;15.20;99.90
49503;DHT22;35409;48.776;9.204;2023-04-29T09:18:04;15.30;99.90
49503;DHT22;35409;48.776;9.204;2023-04-29T09:20:30;15.40;99.90
49503;DHT22;35409;48.776;9.204;2023-04-29T09:22:56;15.50;99.90
49503;DHT22;35409;48.776;9.204;2023-04-29T09:25:22;15.60;99.90
49503;DHT22;35409;48.776;9.204;2023-04-29T09:27:48;15.60;99.90
49503;DHT22;35409;48.776;9.204;2023-04-29T09:30:13;15.50;99.90
49503;DHT22;35409;48.776;9.204;2023-04-29T09:32:41;15.50;99.90
49503;DHT22;35409;48.776;9.204;2023-04-29T09:40:33;15.50;99.90
49503;DHT22;35409;48.776;9.204;2023-04-29T09:42:59;15.60;99.90
49503;DHT22;35409;48.776;9.204;2023-04-29T09:45:34;15.70;99.90
49503;DHT22;35409;48.776;9.204;2023-04-29T09:48:05;15.80;99.90
49503;DHT22;35409;48.776;9.204;2023-04-29T09:50:33;15.90;99.90
49503;DHT22;35409;48.776;9.204;2023-04-29T09:52:58;16.00;99.90
49503;DHT22;35409;48.776;9.204;2023-04-29T09:55:24;16.20;99.90
49503;DHT22;35409;48.776;9.204;2023-04-29T09:57:51;16.40;99.90
49503;DHT22;35409;48.776;9.204;2023-04-29T10:00:17;16.60;99.90
49503;DHT22;35409;48.776;9.204;2023-04-29T10:02:44;16.80;99.90
49503;DHT22;35409;48.776;9.204;2023-04-29T10:05:11;16.80;99.90
49503;DHT22;35409;48.776;9.204;2023-04-29T10:07:38;16.70;99.90
49503;DHT22;35409;48.776;9.204;2023-04-29T10:10:04;16.70;99.90
49503;DHT22;35409;48.776;9.204;2023-04-29T10:12:31;16.90;99.90
49503;DHT22;35409;48.776;9.204;2023-04-29T10:19:58;17.70;99.90
49503;DHT22;35409;48.776;9.204;2023-04-29T10:22:33;17.60;99.90
49503;DHT22;35409;48.776;9.204;2023-04-29T10:25:00;17.60;99.90
49503;DHT22;35409;48.776;9.204;2023-04-29T10:27:28;17.40;99.90
49503;DHT22;35409;48.776;9.204;2023-04-29T10:29:53;17.20;99.90
49503;DHT22;35409;48.776;9.204;2023-04-29T10:32:19;17.20;99.90
49503;DHT22;35409;48.776;9.204;2023-04-29T10:34:46;17.20;99.90
49503;DHT22;35409;48.776;9.204;2023-04-29T10:37:12;17.10;99.90
49503;DHT22;35409;48.776;9.204;2023-04-29T10:39:41;17.00;99.90
49503;DHT22;35409;48.776;9.204;2023-04-29T10:42:20;17.00;99.90
49503;DHT22;35409;48.776;9.204;2023-04-29T10:47:35;17.30;99.90
49503;DHT22;35409;48.776;9.204;2023-04-29T10:50:01;17.50;99.90
49503;DHT22;35409;48.776;9.204;2023-04-29T10:52:28;17.50;99.90
49503;DHT22;35409;48.776;9.204;2023-04-29T10:55:03;17.50;99.90
49503;DHT22;35409;48.776;9.204;2023-04-29T10:57:28;17.60;99.90
49503;DHT22;35409;48.776;9.204;2023-04-29T10:59:54;17.60;99.90
49503;DHT22;35409;48.776;9.204;2023-04-29T11:02:20;17.50;99.90
49503;DHT22;35409;48.776;9.204;2023-04-29T11:07:30;17.20;99.90
49503;DHT22;35409;48.776;9.204;2023-04-29T11:09:56;17.20;99.90
49503;DHT22;35409;48.776;9.204;2023-04-29T11:12:21;17.30;99.90
49503;DHT22;35409;48.776;9.204;2023-04-29T11:14:50;17.40;99.90
49503;DHT22;35409;48.776;9.204;2023-04-29T11:17:16;17.50;99.90
49503;DHT22;35409;48.776;9.204;2023-04-29T11:19:44;17.60;99.90
49503;DHT22;35409;48.776;9.204;2023-04-29T11:24:36;17.70;99.90
49503;DHT22;35409;48.776;9.204;2023-04-29T11:27:01;17.80;99.90
49503;DHT22;35409;48.776;9.204;2023-04-29T11:29:29;17.80;99.90
49503;DHT22;35409;48.776;9.204;2023-04-29T11:31:59;17.80;99.90
49503;DHT22;35409;48.776;9.204;2023-04-29T11:34:25;17.90;99.90
49503;DHT22;35409;48.776;9.204;2023-04-29T11:36:51;17.90;99.90
49503;DHT22;35409;48.776;9.204;2023-04-29T11:39:17;18.00;99.90
49503;DHT22;35409;48.776;9.204;2023-04-29T11:41:43;18.00;99.90
49503;DHT22;35409;48.776;9.204;2023-04-29T11:44:08;18.00;99.90
49503;DHT22;35409;48.776;9.204;2023-04-29T11:46:36;18.00;99.90
49503;DHT22;35409;48.776;9.204;2023-04-29T11:49:01;18.20;99.90
49503;DHT22;35409;48.776;9.204;2023-04-29T11:51:27;18.30;99.90
49503;DHT22;35409;48.776;9.204;2023-04-29T11:53:53;18.40;99.90
49503;DHT22;35409;48.776;9.204;2023-04-29T11:56:21;18.30;99.90
49503;DHT22;35409;48.776;9.204;2023-04-29T11:58:54;18.60;99.90
49503;DHT22;35409;48.776;9.204;2023-04-29T12:03:47;20.00;99.90
49503;DHT22;35409;48.776;9.204;2023-04-29T12:06:13;20.00;99.90
49503;DHT22;35409;48.776;9.204;2023-04-29T12:08:39;19.90;99.90
49503;DHT22;35409;48.776;9.204;2023-04-29T12:11:05;19.80;99.90
49503;DHT22;35409;48.776;9.204;2023-04-29T12:13:31;19.20;99.90
49503;DHT22;35409;48.776;9.204;2023-04-29T12:15:57;18.70;99.90
49503;DHT22;35409;48.776;9.204;2023-04-29T12:18:23;18.70;99.90
49503;DHT22;35409;48.776;9.204;2023-04-29T12:20:49;18.60;99.90
49503;DHT22;35409;48.776;9.204;2023-04-29T12:23:19;18.50;99.90
49503;DHT22;35409;48.776;9.204;2023-04-29T12:25:57;18.70;99.90
49503;DHT22;35409;48.776;9.204;2023-04-29T12:28:24;18.50;99.90
49503;DHT22;35409;48.776;9.204;2023-04-29T12:30:50;18.60;99.90
49503;DHT22;35409;48.776;9.204;2023-04-29T12:33:22;18.80;99.90
49503;DHT22;35409;48.776;9.204;2023-04-29T12:35:52;19.00;99.90
49503;DHT22;35409;48.776;9.204;2023-04-29T12:40:47;18.60;99.90
49503;DHT22;35409;48.776;9.204;2023-04-29T12:43:12;18.40;99.90
49503;DHT22;35409;48.776;9.204;2023-04-29T12:45:39;18.40;99.90
49503;DHT22;35409;48.776;9.204;2023-04-29T12:48:05;18.10;99.90
49503;DHT22;35409;48.776;9.204;2023-04-29T12:50:34;17.80;99.90
49503;DHT22;35409;48.776;9.204;2023-04-29T12:53:01;17.70;99.90
49503;DHT22;35409;48.776;9.204;2023-04-29T12:55:26;18.00;99.90
49503;DHT22;35409;48.776;9.204;2023-04-29T12:57:52;18.50;99.90
49503;DHT22;35409;48.776;9.204;2023-04-29T13:00:18;19.00;99.90
49503;DHT22;35409;48.776;9.204;2023-04-29T13:02:44;19.30;99.90
49503;DHT22;35409;48.776;9.204;2023-04-29T13:05:10;20.10;99.90
49503;DHT22;35409;48.776;9.204;2023-04-29T13:10:03;20.00;99.90
49503;DHT22;35409;48.776;9.204;2023-04-29T13:12:33;20.00;99.90
49503;DHT22;35409;48.776;9.204;2023-04-29T13:14:59;20.00;99.90
49503;DHT22;35409;48.776;9.204;2023-04-29T13:17:24;19.80;99.90
49503;DHT22;35409;48.776;9.204;2023-04-29T13:19:49;19.70;99.90
49503;DHT22;35409;48.776;9.204;2023-04-29T13:22:15;19.40;99.90
49503;DHT22;35409;48.776;9.204;2023-04-29T13:24:41;19.20;99.90
49503;DHT22;35409;48.776;9.204;2023-04-29T13:27:07;19.40;99.90
49503;DHT22;35409;48.776;9.204;2023-04-29T13:29:32;19.70;99.90
49503;DHT22;35409;48.776;9.204;2023-04-29T13:31:58;19.60;99.90
49503;DHT22;35409;48.776;9.204;2023-04-29T13:34:23;19.20;99.90
49503;DHT22;35409;48.776;9.204;2023-04-29T13:36:49;19.10;99.90
49503;DHT22;35409;48.776;9.204;2023-04-29T13:39:14;19.10;99.90
49503;DHT22;35409;48.776;9.204;2023-04-29T13:41:40;18.80;99.90
49503;DHT22;35409;48.776;9.204;2023-04-29T13:44:05;18.60;99.90
49503;DHT22;35409;48.776;9.204;2023-04-29T13:46:31;18.40;99.90
49503;DHT22;35409;48.776;9.204;2023-04-29T13:48:57;18.40;99.90
49503;DHT22;35409;48.776;9.204;2023-04-29T13:51:22;18.50;99.90
49503;DHT22;35409;48.776;9.204;2023-04-29T13:53:48;18.00;99.90
49503;DHT22;35409;48.776;9.204;2023-04-29T13:56:14;18.20;99.90
49503;DHT22;35409;48.776;9.204;2023-04-29T13:58:40;18.50;99.90
49503;DHT22;35409;48.776;9.204;2023-04-29T14:01:06;18.50;99.90
49503;DHT22;35409;48.776;9.204;2023-04-29T14:03:31;18.70;99.90
49503;DHT22;35409;48.776;9.204;2023-04-29T14:05:57;18.40;99.90
49503;DHT22;35409;48.776;9.204;2023-04-29T14:08:22;17.80;99.90
49503;DHT22;35409;48.776;9.204;2023-04-29T14:10:48;18.00;99.90
49503;DHT22;35409;48.776;9.204;2023-04-29T14:13:13;18.10;99.90
49503;DHT22;35409;48.776;9.204;2023-04-29T14:15:39;18.10;99.90
49503;DHT22;35409;48.776;9.204;2023-04-29T14:18:05;18.50;99.90
49503;DHT22;35409;48.776;9.204;2023-04-29T14:20:32;18.70;99.90
49503;DHT22;35409;48.776;9.204;2023-04-29T14:22:58;18.90;99.90
49503;DHT22;35409;48.776;9.204;2023-04-29T14:25:23;19.20;99.90
49503;DHT22;35409;48.776;9.204;2023-04-29T14:27:48;19.20;99.90
49503;DHT22;35409;48.776;9.204;2023-04-29T14:30:14;18.70;99.90
49503;DHT22;35409;48.776;9.204;2023-04-29T14:32:40;18.50;99.90
49503;DHT22;35409;48.776;9.204;2023-04-29T14:35:05;18.50;99.90
49503;DHT22;35409;48.776;9.204;2023-04-29T14:37:31;18.50;99.90
49503;DHT22;35409;48.776;9.204;2023-04-29T14:39:57;18.30;99.90
49503;DHT22;35409;48.776;9.204;2023-04-29T14:42:22;18.10;99.90
49503;DHT22;35409;48.776;9.204;2023-04-29T14:44:48;17.80;99.90
49503;DHT22;35409;48.776;9.204;2023-04-29T14:47:13;17.80;99.90
49503;DHT22;35409;48.776;9.204;2023-04-29T14:49:39;17.90;99.90
49503;DHT22;35409;48.776;9.204;2023-04-29T14:52:05;17.90;99.90
49503;DHT22;35409;48.776;9.204;2023-04-29T14:54:30;18.10;99.90
49503;DHT22;35409;48.776;9.204;2023-04-29T14:56:56;18.20;99.90
49503;DHT22;35409;48.776;9.204;2023-04-29T14:59:21;17.90;99.90
49503;DHT22;35409;48.776;9.204;2023-04-29T15:01:47;17.50;99.90
49503;DHT22;35409;48.776;9.204;2023-04-29T15:04:12;17.30;99.90
49503;DHT22;35409;48.776;9.204;2023-04-29T15:06:38;17.00;99.90
49503;DHT22;35409;48.776;9.204;2023-04-29T15:09:05;16.90;99.90
49503;DHT22;35409;48.776;9.204;2023-04-29T15:11:30;17.20;99.90
49503;DHT22;35409;48.776;9.204;2023-04-29T15:13:57;17.60;99.90
49503;DHT22;35409;48.776;9.204;2023-04-29T15:16:22;18.10;99.90
49503;DHT22;35409;48.776;9.204;2023-04-29T15:18:48;18.40;99.90
49503;DHT22;35409;48.776;9.204;2023-04-29T15:21:13;18.50;99.90
49503;DHT22;35409;48.776;9.204;2023-04-29T15:23:39;18.30;99.90
49503;DHT22;35409;48.776;9.204;2023-04-29T15:26:04;18.20;99.90
49503;DHT22;35409;48.776;9.204;2023-04-29T15:28:31;18.20;99.90
49503;DHT22;35409;48.776;9.204;2023-04-29T15:30:56;18.00;99.90
49503;DHT22;35409;48.776;9.204;2023-04-29T15:33:24;18.00;99.90
49503;DHT22;35409;48.776;9.204;2023-04-29T15:35:49;18.20;99.90
49503;DHT22;35409;48.776;9.204;2023-04-29T15:38:15;18.40;99.90
49503;DHT22;35409;48.776;9.204;2023-04-29T15:40:41;18.50;99.90
49503;DHT22;35409;48.776;9.204;2023-04-29T15:43:06;18.60;99.90
49503;DHT22;35409;48.776;9.204;2023-04-29T15:45:31;18.80;99.90
49503;DHT22;35409;48.776;9.204;2023-04-29T15:47:57;18.80;99.90
49503;DHT22;35409;48.776;9.204;2023-04-29T15:50:22;18.30;99.90
49503;DHT22;35409;48.776;9.204;2023-04-29T15:52:48;18.10;99.90
49503;DHT22;35409;48.776;9.204;2023-04-29T15:55:16;17.90;99.90
49503;DHT22;35409;48.776;9.204;2023-04-29T15:57:42;17.70;99.90
49503;DHT22;35409;48.776;9.204;2023-04-29T16:00:07;17.60;99.90
49503;DHT22;35409;48.776;9.204;2023-04-29T16:02:33;17.30;99.90
49503;DHT22;35409;48.776;9.204;2023-04-29T16:04:58;17.10;99.90
49503;DHT22;35409;48.776;9.204;2023-04-29T16:07:24;16.80;99.90
49503;DHT22;35409;48.776;9.204;2023-04-29T16:09:49;16.60;99.90
49503;DHT22;35409;48.776;9.204;2023-04-29T16:12:15;16.40;99.90
49503;DHT22;35409;48.776;9.204;2023-04-29T16:14:40;16.30;99.90
49503;DHT22;35409;48.776;9.204;2023-04-29T16:17:06;16.10;99.90
49503;DHT22;35409;48.776;9.204;2023-04-29T16:19:32;16.10;99.90
49503;DHT22;35409;48.776;9.204;2023-04-29T16:21:57;16.00;99.90
49503;DHT22;35409;48.776;9.204;2023-04-29T16:24:22;15.90;99.90
49503;DHT22;35409;48.776;9.204;2023-04-29T16:26:48;15.80;99.90